createdAt,value
2022-11-09T00:01:29.714Z,4.20
2022-11-09T00:03:58.466Z,3.87
2022-11-09T00:06:28.428Z,4.47
2022-11-09T00:08:55.680Z,3.90
2022-11-09T00:11:22.639Z,5.00
2022-11-09T00:13:49.856Z,4.27
2022-11-09T00:16:20.168Z,4.10
2022-11-09T00:18:47.683Z,4.80
2022-11-09T00:21:17.386Z,5.37
2022-11-09T00:23:44.861Z,4.27
2022-11-09T00:26:13.709Z,4.40
2022-11-09T00:28:41.157Z,4.63
2022-11-09T00:31:11.674Z,4.23
2022-11-09T00:33:39.363Z,5.53
2022-11-09T00:36:08.499Z,4.47
2022-11-09T00:38:36.608Z,4.40
2022-11-09T00:41:04.553Z,4.40
2022-11-09T00:43:31.713Z,3.87
2022-11-09T00:45:58.618Z,3.83
2022-11-09T00:48:26.035Z,4.53
2022-11-09T00:50:54.901Z,4.93
2022-11-09T00:53:23.181Z,4.33
2022-11-09T00:56:03.225Z,4.27
2022-11-09T00:58:32.566Z,4.53
2022-11-09T01:01:00.865Z,3.63
2022-11-09T01:03:28.055Z,4.30
2022-11-09T01:05:58.810Z,4.00
2022-11-09T01:08:25.737Z,4.43
2022-11-09T01:10:52.794Z,4.40
2022-11-09T01:13:20.609Z,4.03
2022-11-09T01:15:53.100Z,4.17
2022-11-09T01:18:21.196Z,4.30
2022-11-09T01:20:50.107Z,5.47
2022-11-09T01:23:18.996Z,4.60
2022-11-09T01:25:46.046Z,4.67
2022-11-09T01:28:13.290Z,4.97
2022-11-09T01:30:42.645Z,5.23
2022-11-09T01:33:12.052Z,4.43
2022-11-09T01:35:40.793Z,4.43
2022-11-09T01:38:09.032Z,4.40
2022-11-09T01:40:38.552Z,4.03
2022-11-09T01:43:20.859Z,4.67
2022-11-09T01:45:56.729Z,4.97
2022-11-09T01:48:46.192Z,5.70
2022-11-09T01:51:37.575Z,4.70
2022-11-09T01:54:37.501Z,4.90
2022-11-09T01:57:18.486Z,4.30
2022-11-09T01:59:51.497Z,4.40
2022-11-09T02:02:18.753Z,4.40
2022-11-09T02:04:52.490Z,4.70
2022-11-09T02:07:21.334Z,4.50
2022-11-09T02:10:01.856Z,5.13
2022-11-09T02:12:31.533Z,4.27
2022-11-09T02:15:01.618Z,4.27
2022-11-09T02:17:29.911Z,5.20
2022-11-09T02:20:00.879Z,4.63
2022-11-09T02:22:27.797Z,5.10
2022-11-09T02:24:56.504Z,4.87
2022-11-09T02:27:24.323Z,5.63
2022-11-09T02:29:52.041Z,5.40
2022-11-09T02:32:26.005Z,4.83
2022-11-09T02:34:52.967Z,5.33
2022-11-09T02:37:47.664Z,5.43
2022-11-09T02:40:20.914Z,5.53
2022-11-09T02:42:47.859Z,5.10
2022-11-09T02:45:14.773Z,5.80
2022-11-09T02:47:41.981Z,5.10
2022-11-09T02:50:09.596Z,5.67
2022-11-09T02:52:36.579Z,4.80
2022-11-09T02:55:03.633Z,5.00
2022-11-09T02:57:30.615Z,4.90
2022-11-09T02:59:57.663Z,5.63
2022-11-09T03:02:24.628Z,5.27
2022-11-09T03:04:51.490Z,5.27
2022-11-09T03:07:18.883Z,4.77
2022-11-09T03:09:46.619Z,5.33
2022-11-09T03:12:31.793Z,5.93
2022-11-09T03:15:04.936Z,5.17
2022-11-09T03:17:32.739Z,5.47
2022-11-09T03:19:59.596Z,5.53
2022-11-09T03:22:27.003Z,5.43
2022-11-09T03:24:53.857Z,5.10
2022-11-09T03:27:20.731Z,5.07
2022-11-09T03:29:47.656Z,4.93
2022-11-09T03:32:14.558Z,5.50
2022-11-09T03:34:41.510Z,5.93
2022-11-09T03:37:08.701Z,5.87
2022-11-09T03:39:35.663Z,6.17
2022-11-09T03:42:02.744Z,5.70
2022-11-09T03:44:29.651Z,5.47
2022-11-09T03:46:56.692Z,5.40
2022-11-09T03:49:26.164Z,5.60
2022-11-09T03:51:53.080Z,6.17
2022-11-09T03:54:19.993Z,5.30
2022-11-09T03:56:46.849Z,5.77
2022-11-09T03:59:13.850Z,5.50
2022-11-09T04:01:41.065Z,5.57
2022-11-09T04:04:08.043Z,5.63
2022-11-09T04:06:35.296Z,5.33
2022-11-09T04:09:02.314Z,5.23
2022-11-09T04:11:29.189Z,5.63
2022-11-09T04:13:56.121Z,5.07
2022-11-09T04:16:22.977Z,4.87
2022-11-09T04:18:49.816Z,4.63
2022-11-09T04:21:20.293Z,5.43
2022-11-09T04:23:50.592Z,4.87
2022-11-09T04:26:17.820Z,5.17
2022-11-09T04:28:44.681Z,5.23
2022-11-09T04:31:11.547Z,4.67
2022-11-09T04:33:38.438Z,5.47
2022-11-09T04:36:05.822Z,5.57
2022-11-09T04:38:33.018Z,5.47
2022-11-09T04:41:04.768Z,5.53
2022-11-09T04:43:32.046Z,4.40
2022-11-09T04:46:03.042Z,5.20
2022-11-09T04:48:31.298Z,4.43
2022-11-09T04:51:07.355Z,5.40
2022-11-09T04:53:35.252Z,4.90
2022-11-09T04:56:02.412Z,5.13
2022-11-09T04:58:29.254Z,4.90
2022-11-09T05:01:01.637Z,4.73
2022-11-09T05:03:28.555Z,6.03
2022-11-09T05:05:55.820Z,4.73
2022-11-09T05:08:22.704Z,4.77
2022-11-09T05:10:49.605Z,5.03
2022-11-09T05:13:16.938Z,4.67
2022-11-09T05:15:44.032Z,5.47
2022-11-09T05:18:11.035Z,4.10
2022-11-09T05:20:37.984Z,4.67
2022-11-09T05:23:24.117Z,4.70
2022-11-09T05:25:53.571Z,3.57
2022-11-09T05:28:20.508Z,5.40
2022-11-09T05:30:47.476Z,5.03
2022-11-09T05:33:14.934Z,4.30
2022-11-09T05:35:41.815Z,5.00
2022-11-09T05:38:08.723Z,5.10
2022-11-09T05:40:35.586Z,4.10
2022-11-09T05:43:02.440Z,4.60
2022-11-09T05:45:42.711Z,4.47
2022-11-09T05:48:12.272Z,5.63
2022-11-09T05:50:41.350Z,4.43
2022-11-09T05:53:09.177Z,5.67
2022-11-09T05:55:36.223Z,4.70
2022-11-09T05:58:03.531Z,4.43
2022-11-09T06:00:30.493Z,4.67
2022-11-09T06:03:08.791Z,4.40
2022-11-09T06:05:37.537Z,4.23
2022-11-09T06:08:09.535Z,4.60
2022-11-09T06:10:36.450Z,4.17
2022-11-09T06:13:03.829Z,4.43
2022-11-09T06:15:31.150Z,4.23
2022-11-09T06:17:58.934Z,4.10
2022-11-09T06:20:27.335Z,4.43
2022-11-09T06:23:02.995Z,4.13
2022-11-09T06:25:32.328Z,4.40
2022-11-09T06:27:59.429Z,4.43
2022-11-09T06:30:26.489Z,4.07
2022-11-09T06:32:59.423Z,5.00
2022-11-09T06:35:26.460Z,5.10
2022-11-09T06:37:58.446Z,4.57
2022-11-09T06:40:27.209Z,4.10
2022-11-09T06:42:57.206Z,4.47
2022-11-09T06:45:26.476Z,4.20
2022-11-09T06:48:01.693Z,5.13
2022-11-09T06:50:31.145Z,3.77
2022-11-09T06:53:03.167Z,4.53
2022-11-09T06:55:31.507Z,5.10
2022-11-09T06:57:59.036Z,4.67
2022-11-09T07:00:27.625Z,4.27
2022-11-09T07:02:54.541Z,4.53
2022-11-09T07:05:21.891Z,4.10
2022-11-09T07:07:48.947Z,3.80
2022-11-09T07:10:16.129Z,3.93
2022-11-09T07:12:43.117Z,4.10
2022-11-09T07:15:11.643Z,3.83
2022-11-09T07:17:39.918Z,3.97
2022-11-09T07:20:08.768Z,3.93
2022-11-09T07:22:39.550Z,4.27
2022-11-09T07:25:13.786Z,4.43
2022-11-09T07:27:40.781Z,4.40
2022-11-09T07:30:08.265Z,4.53
2022-11-09T07:33:08.831Z,3.97
2022-11-09T07:35:29.403Z,3.97
2022-11-09T07:38:01.548Z,3.97
2022-11-09T07:40:28.694Z,3.80
2022-11-09T07:42:59.496Z,4.17
2022-11-09T07:45:27.089Z,4.47
2022-11-09T07:48:01.376Z,3.90
2022-11-09T07:50:30.275Z,3.77
2022-11-09T07:52:58.536Z,3.63
2022-11-09T07:55:26.482Z,4.72
2022-11-09T07:57:58.241Z,4.20
2022-11-09T08:00:26.505Z,4.43
2022-11-09T08:02:54.020Z,4.00
2022-11-09T08:05:21.363Z,4.57
2022-11-09T08:07:48.903Z,3.80
2022-11-09T08:10:16.241Z,4.90
2022-11-09T08:12:43.169Z,3.70
2022-11-09T08:15:10.718Z,4.43
2022-11-09T08:17:37.948Z,3.80
2022-11-09T08:20:05.180Z,3.73
2022-11-09T08:22:32.371Z,4.17
2022-11-09T08:24:59.363Z,4.87
2022-11-09T08:27:26.323Z,3.60
2022-11-09T08:29:53.472Z,7.40
2022-11-09T08:32:20.418Z,3.80
2022-11-09T08:34:48.895Z,4.10
2022-11-09T08:37:16.856Z,4.27
2022-11-09T08:39:43.835Z,4.07
2022-11-09T08:42:10.733Z,4.20
2022-11-09T08:44:37.724Z,4.03
2022-11-09T08:47:06.022Z,6.37
2022-11-09T08:49:33.108Z,3.83
2022-11-09T08:52:00.250Z,4.00
2022-11-09T08:54:27.497Z,4.03
2022-11-09T08:56:57.933Z,4.13
2022-11-09T08:59:25.033Z,4.77
2022-11-09T09:01:52.250Z,3.83
2022-11-09T09:04:21.760Z,3.60
2022-11-09T09:06:48.747Z,3.90
2022-11-09T09:09:15.930Z,4.30
2022-11-09T09:11:42.818Z,3.87
2022-11-09T09:14:09.826Z,5.97
2022-11-09T09:16:36.770Z,4.23
2022-11-09T09:19:04.505Z,3.47
2022-11-09T09:21:31.597Z,3.90
2022-11-09T09:23:58.529Z,4.63
2022-11-09T09:26:25.495Z,5.13
2022-11-09T09:28:52.763Z,4.00
2022-11-09T09:31:20.134Z,4.73
2022-11-09T09:33:47.889Z,5.17
2022-11-09T09:36:20.437Z,4.03
2022-11-09T09:38:50.471Z,4.20
2022-11-09T09:41:38.562Z,3.93
2022-11-09T09:44:24.454Z,3.87
2022-11-09T09:47:13.609Z,4.43
2022-11-09T09:49:45.912Z,4.73
2022-11-09T09:52:26.550Z,6.67
2022-11-09T09:55:27.707Z,5.10
2022-11-09T09:57:59.476Z,4.47
2022-11-09T10:00:28.181Z,3.63
2022-11-09T10:02:55.975Z,3.33
2022-11-09T10:05:35.905Z,3.97
2022-11-09T10:08:37.968Z,3.87
2022-11-09T10:11:16.438Z,3.50
2022-11-09T10:14:03.691Z,3.57
2022-11-09T10:16:37.496Z,4.07
2022-11-09T10:19:16.997Z,3.20
2022-11-09T10:21:56.049Z,3.70
2022-11-09T10:24:36.918Z,4.37
2022-11-09T10:27:35.822Z,4.43
2022-11-09T10:30:16.984Z,3.90
2022-11-09T10:32:51.113Z,4.23
2022-11-09T10:35:34.657Z,4.87
2022-11-09T10:38:02.737Z,4.53
2022-11-09T10:40:44.998Z,4.57
2022-11-09T10:43:15.844Z,4.40
2022-11-09T10:45:44.965Z,4.30
2022-11-09T10:48:21.286Z,4.77
2022-11-09T10:50:54.221Z,5.27
2022-11-09T10:53:30.299Z,4.13
2022-11-09T10:56:21.397Z,4.00
2022-11-09T10:58:53.645Z,4.60
2022-11-09T11:01:25.217Z,4.93
2022-11-09T11:03:55.013Z,5.00
2022-11-09T11:06:21.879Z,5.00
2022-11-09T11:08:58.351Z,4.90
2022-11-09T11:11:35.556Z,4.03
2022-11-09T11:14:30.866Z,4.67
2022-11-09T11:16:59.469Z,4.00
2022-11-09T11:19:35.757Z,4.63
2022-11-09T11:22:12.712Z,4.50
2022-11-09T11:24:56.572Z,4.73
2022-11-09T11:27:48.930Z,3.90
2022-11-09T11:30:35.204Z,3.97
2022-11-09T11:33:06.356Z,3.37
2022-11-09T11:35:43.960Z,3.70
2022-11-09T11:38:27.442Z,4.53
2022-11-09T11:41:28.430Z,3.47
2022-11-09T11:44:43.054Z,3.50
2022-11-09T11:47:31.389Z,3.77
2022-11-09T11:50:42.419Z,3.20
2022-11-09T11:53:23.457Z,3.47
2022-11-09T11:56:26.485Z,3.10
2022-11-09T11:59:37.509Z,3.47
2022-11-09T12:02:42.205Z,3.83
2022-11-09T12:05:50.478Z,3.47
2022-11-09T12:08:36.251Z,3.63
2022-11-09T12:11:24.827Z,4.00
2022-11-09T12:14:09.557Z,3.80
2022-11-09T12:16:52.653Z,3.93
2022-11-09T12:19:51.079Z,3.40
2022-11-09T12:22:37.762Z,3.70
2022-11-09T12:25:19.454Z,3.13
2022-11-09T12:27:59.448Z,3.47
2022-11-09T12:30:53.546Z,3.93
2022-11-09T12:33:43.827Z,3.10
2022-11-09T12:36:25.799Z,3.63
2022-11-09T12:39:18.157Z,3.37
2022-11-09T12:41:48.348Z,3.30
2022-11-09T12:44:32.811Z,2.93
2022-11-09T12:47:15.502Z,2.60
2022-11-09T12:49:45.370Z,2.90
2022-11-09T12:52:15.444Z,2.80
2022-11-09T12:54:47.233Z,2.67
2022-11-09T12:57:26.784Z,3.17
2022-11-09T12:59:56.471Z,2.70
2022-11-09T13:02:32.705Z,3.20
2022-11-09T13:05:02.464Z,2.80
2022-11-09T13:07:58.772Z,3.13
2022-11-09T13:10:27.538Z,2.50
2022-11-09T13:13:12.557Z,3.17
2022-11-09T13:16:00.391Z,2.87
2022-11-09T13:18:49.388Z,2.87
2022-11-09T13:21:22.596Z,3.17
2022-11-09T13:24:01.599Z,3.50
2022-11-09T13:26:33.555Z,2.90
2022-11-09T13:29:16.264Z,2.33
2022-11-09T13:32:03.792Z,2.70
2022-11-09T13:34:54.940Z,3.23
2022-11-09T13:37:45.332Z,3.17
2022-11-09T13:40:31.112Z,2.93
2022-11-09T13:43:19.152Z,3.00
2022-11-09T13:45:54.485Z,6.03
2022-11-09T13:48:27.324Z,3.30
2022-11-09T13:50:57.115Z,4.27
2022-11-09T13:53:31.697Z,3.60
2022-11-09T13:55:59.465Z,3.23
2022-11-09T13:58:35.660Z,3.03
2022-11-09T14:01:02.892Z,3.03
2022-11-09T14:03:30.328Z,3.30
2022-11-09T14:06:02.754Z,3.77
2022-11-09T14:08:40.398Z,2.80
2022-11-09T14:11:31.781Z,4.00
2022-11-09T14:14:37.446Z,3.23
2022-11-09T14:17:20.345Z,3.33
2022-11-09T14:19:56.492Z,3.20
2022-11-09T14:22:23.702Z,3.70
2022-11-09T14:24:50.910Z,3.57
2022-11-09T14:27:23.681Z,3.67
2022-11-09T14:29:56.782Z,4.17
2022-11-09T14:32:25.602Z,3.17
2022-11-09T14:34:52.899Z,3.17
2022-11-09T14:37:21.389Z,3.40
2022-11-09T14:39:51.096Z,3.13
2022-11-09T14:42:23.930Z,3.27
2022-11-09T14:44:51.331Z,3.20
2022-11-09T14:47:35.228Z,3.00
2022-11-09T14:50:02.913Z,2.80
2022-11-09T14:52:31.060Z,3.30
2022-11-09T14:54:59.184Z,3.20
2022-11-09T14:57:26.444Z,3.40
2022-11-09T14:59:55.213Z,3.40
2022-11-09T15:02:23.896Z,3.10
2022-11-09T15:05:01.870Z,2.80
2022-11-09T15:07:33.248Z,2.87
2022-11-09T15:10:04.404Z,3.00
2022-11-09T15:12:31.565Z,2.90
2022-11-09T15:15:07.822Z,3.10
2022-11-09T15:17:39.115Z,2.83
2022-11-09T15:20:09.194Z,2.73
2022-11-09T15:22:55.347Z,3.10
2022-11-09T15:25:24.904Z,2.73
2022-11-09T15:28:09.643Z,2.77
2022-11-09T15:30:46.069Z,2.67
2022-11-09T15:33:19.481Z,2.90
2022-11-09T15:35:52.257Z,3.20
2022-11-09T15:38:52.393Z,2.53
2022-11-09T15:41:21.980Z,2.87
2022-11-09T15:43:49.715Z,2.87
2022-11-09T15:46:29.154Z,3.37
2022-11-09T15:49:18.836Z,3.13
2022-11-09T15:51:49.421Z,3.57
2022-11-09T15:54:17.223Z,2.90
2022-11-09T15:56:45.127Z,3.97
2022-11-09T15:59:32.464Z,3.03
2022-11-09T16:02:01.772Z,3.10
2022-11-09T16:04:28.807Z,3.30
2022-11-09T16:06:55.704Z,2.97
2022-11-09T16:09:22.883Z,3.10
2022-11-09T16:11:50.171Z,2.97
2022-11-09T16:14:17.973Z,3.20
2022-11-09T16:16:46.275Z,3.37
2022-11-09T16:19:16.206Z,2.90
2022-11-09T16:21:43.493Z,3.03
2022-11-09T16:24:10.418Z,2.93
2022-11-09T16:26:37.408Z,3.00
2022-11-09T16:29:04.788Z,3.00
2022-11-09T16:34:19.190Z,2.60
2022-11-09T16:36:52.287Z,3.20
2022-11-09T16:39:25.412Z,2.90
2022-11-09T17:01:12.001Z,3.30
2022-11-09T17:07:23.883Z,3.83
2022-11-09T17:20:48.865Z,3.53
2022-11-09T17:23:19.978Z,3.23
2022-11-09T17:26:10.829Z,3.33
2022-11-09T17:28:42.731Z,3.00
2022-11-09T17:31:23.952Z,3.63
2022-11-09T17:33:50.844Z,3.37
2022-11-09T17:36:35.136Z,3.30
2022-11-09T17:39:06.704Z,3.50
2022-11-09T17:41:35.608Z,3.50
2022-11-09T17:44:06.048Z,4.13
2022-11-09T17:46:32.979Z,3.33
2022-11-09T17:48:59.995Z,4.40
2022-11-09T17:51:26.955Z,4.17
2022-11-09T17:53:54.869Z,3.37
2022-11-09T17:56:21.786Z,3.83
2022-11-09T17:58:48.668Z,3.80
2022-11-09T18:01:18.783Z,2.80
2022-11-09T18:03:46.390Z,3.10
2022-11-09T18:06:20.155Z,3.80
2022-11-09T18:09:03.621Z,4.00
2022-11-09T18:11:34.463Z,3.63
2022-11-09T18:14:01.435Z,3.70
2022-11-09T18:16:28.369Z,3.63
2022-11-09T18:19:02.517Z,3.83
2022-11-09T18:21:29.824Z,3.30
2022-11-09T18:24:03.993Z,3.67
2022-11-09T18:26:31.747Z,4.67
2022-11-09T18:28:58.824Z,4.00
2022-11-09T18:31:25.794Z,3.93
2022-11-09T18:33:53.887Z,3.47
2022-11-09T18:36:21.676Z,3.03
2022-11-09T18:38:53.316Z,3.50
2022-11-09T18:41:22.242Z,3.20
2022-11-09T18:43:50.358Z,4.00
2022-11-09T18:46:20.292Z,3.60
2022-11-09T18:48:55.572Z,3.03
2022-11-09T18:51:23.482Z,2.90
2022-11-09T18:53:50.444Z,3.10
2022-11-09T18:56:23.201Z,3.00
2022-11-09T18:58:55.237Z,3.03
2022-11-09T19:01:24.626Z,3.83
2022-11-09T19:03:56.374Z,3.30
2022-11-09T19:06:28.347Z,3.50
2022-11-09T19:09:15.121Z,3.40
2022-11-09T19:11:42.392Z,4.00
2022-11-09T19:14:10.708Z,3.67
2022-11-09T19:16:37.701Z,2.87
2022-11-09T19:19:04.674Z,2.70
2022-11-09T19:21:49.558Z,4.20
2022-11-09T19:24:20.564Z,4.00
2022-11-09T19:26:49.897Z,3.40
2022-11-09T19:29:17.393Z,3.47
2022-11-09T19:31:45.409Z,2.97
2022-11-09T19:34:14.254Z,3.80
2022-11-09T19:36:46.190Z,3.30
2022-11-09T19:39:16.066Z,4.30
2022-11-09T19:41:46.105Z,4.17
2022-11-09T19:44:20.327Z,3.83
2022-11-09T19:46:47.644Z,3.40
2022-11-09T19:49:14.586Z,4.07
2022-11-09T19:51:41.424Z,3.97
2022-11-09T19:54:13.006Z,3.47
2022-11-09T19:56:41.457Z,3.23
2022-11-09T19:59:13.830Z,3.37
2022-11-09T20:01:40.948Z,3.37
2022-11-09T20:04:10.467Z,3.30
2022-11-09T20:06:38.984Z,3.00
2022-11-09T20:09:06.197Z,3.30
2022-11-09T20:11:51.659Z,3.93
2022-11-09T20:14:18.705Z,3.60
2022-11-09T20:16:47.934Z,3.77
2022-11-09T20:19:21.716Z,3.50
2022-11-09T20:21:49.823Z,3.20
2022-11-09T20:24:16.891Z,3.70
2022-11-09T20:26:44.184Z,3.57
2022-11-09T20:29:11.458Z,4.00
2022-11-09T20:31:38.595Z,4.00
2022-11-09T20:34:05.977Z,3.13
2022-11-09T20:36:33.167Z,3.90
2022-11-09T20:39:00.265Z,4.37
2022-11-09T20:41:27.649Z,4.43
2022-11-09T20:43:54.556Z,5.00
2022-11-09T20:46:24.912Z,3.67
2022-11-09T20:48:54.486Z,3.30
2022-11-09T20:51:24.083Z,3.53
2022-11-09T20:53:51.041Z,3.40
2022-11-09T20:56:20.020Z,4.07
2022-11-09T20:58:47.376Z,3.30
2022-11-09T21:01:20.459Z,4.73
2022-11-09T21:03:49.060Z,3.67
2022-11-09T21:06:16.192Z,3.20
2022-11-09T21:08:50.121Z,3.67
2022-11-09T21:11:18.172Z,3.40
2022-11-09T21:13:53.251Z,3.30
2022-11-09T21:16:21.610Z,3.50
2022-11-09T21:18:49.002Z,2.97
2022-11-09T21:21:18.505Z,3.60
2022-11-09T21:24:24.237Z,3.53
2022-11-09T21:27:09.707Z,3.00
2022-11-09T21:29:52.056Z,3.40
2022-11-09T21:32:20.522Z,3.33
2022-11-09T21:34:48.216Z,3.80
2022-11-09T21:37:15.309Z,4.07
2022-11-09T21:39:42.925Z,3.40
2022-11-09T21:42:12.059Z,3.80
2022-11-09T21:44:39.740Z,2.90
2022-11-09T21:47:07.632Z,3.33
2022-11-09T21:49:34.612Z,3.47
2022-11-09T21:52:01.565Z,3.50
2022-11-09T21:54:28.590Z,3.13
2022-11-09T21:56:56.164Z,3.23
2022-11-09T21:59:23.508Z,2.73
2022-11-09T22:01:50.780Z,3.50
2022-11-09T22:04:18.140Z,3.87
2022-11-09T22:06:44.984Z,3.20
2022-11-09T22:09:17.248Z,3.43
2022-11-09T22:12:03.041Z,3.43
2022-11-09T22:14:48.649Z,3.80
2022-11-09T22:17:15.692Z,3.37
2022-11-09T22:20:01.620Z,3.43
2022-11-09T22:22:30.298Z,3.10
2022-11-09T22:24:57.758Z,3.03
2022-11-09T22:27:24.925Z,3.30
2022-11-09T22:29:52.013Z,3.30
2022-11-09T22:32:18.911Z,3.23
2022-11-09T22:34:45.878Z,3.37
2022-11-09T22:37:12.751Z,3.27
2022-11-09T22:39:44.394Z,3.23
2022-11-09T22:42:13.797Z,3.50
2022-11-09T22:44:40.699Z,3.20
2022-11-09T22:47:07.646Z,3.97
2022-11-09T22:49:36.913Z,3.43
2022-11-09T22:52:04.872Z,2.83
2022-11-09T22:54:31.858Z,3.30
2022-11-09T22:56:58.877Z,3.10
2022-11-09T22:59:25.769Z,3.47
2022-11-09T23:01:52.649Z,3.07
2022-11-09T23:04:22.612Z,3.67
2022-11-09T23:06:49.563Z,3.07
2022-11-09T23:09:16.527Z,3.00
2022-11-09T23:11:43.634Z,3.13
2022-11-09T23:14:12.331Z,2.80
2022-11-09T23:16:39.216Z,3.30
2022-11-09T23:19:06.105Z,2.80
2022-11-09T23:21:35.616Z,3.47
2022-11-09T23:24:05.033Z,3.17
2022-11-09T23:26:32.994Z,3.37
2022-11-09T23:29:00.435Z,4.40
2022-11-09T23:31:27.785Z,3.30
2022-11-09T23:33:57.064Z,4.27
2022-11-09T23:36:25.891Z,3.27
2022-11-09T23:38:53.137Z,3.30
2022-11-09T23:41:20.282Z,3.00
2022-11-09T23:43:49.604Z,4.33
2022-11-09T23:46:17.246Z,3.63
2022-11-09T23:48:44.297Z,3.37
2022-11-09T23:51:11.323Z,3.50
2022-11-09T23:53:38.804Z,3.60
2022-11-09T23:56:13.279Z,3.17
2022-11-09T23:58:40.179Z,3.07
